createdAt,value
2018-12-15T00:00:03.791Z,23.30
2018-12-15T00:01:09.828Z,22.48
2018-12-15T00:02:15.859Z,23.20
2018-12-15T00:03:21.909Z,25.00
2018-12-15T00:04:27.980Z,22.30
2018-12-15T00:05:37.792Z,22.87
2018-12-15T00:06:41.933Z,21.87
2018-12-15T00:07:45.952Z,23.27
2018-12-15T00:08:49.947Z,23.98
2018-12-15T00:09:54.017Z,24.77
2018-12-15T00:10:58.027Z,22.67
2018-12-15T00:12:03.552Z,22.45
2018-12-15T00:13:07.586Z,23.32
2018-12-15T00:14:11.613Z,24.25
2018-12-15T00:15:15.634Z,23.70
2018-12-15T00:16:19.630Z,24.02
2018-12-15T00:17:23.660Z,23.07
2018-12-15T00:18:27.687Z,23.05
2018-12-15T00:19:31.735Z,23.27
2018-12-15T00:20:35.855Z,24.15
2018-12-15T00:21:43.631Z,22.98
2018-12-15T00:22:47.880Z,23.27
2018-12-15T00:23:53.182Z,23.95
2018-12-15T00:24:57.359Z,24.10
2018-12-15T00:26:01.733Z,23.40
2018-12-15T00:27:05.833Z,23.55
2018-12-15T00:28:10.094Z,24.32
2018-12-15T00:29:14.248Z,22.58
2018-12-15T00:30:18.357Z,23.38
2018-12-15T00:31:22.562Z,23.87
2018-12-15T00:32:26.766Z,23.05
2018-12-15T00:33:31.233Z,24.40
2018-12-15T00:34:35.390Z,23.73
2018-12-15T00:35:39.505Z,22.27
2018-12-15T00:36:43.631Z,22.60
2018-12-15T00:37:48.053Z,24.10
2018-12-15T00:38:52.246Z,22.98
2018-12-15T00:39:56.566Z,23.15
2018-12-15T00:41:00.750Z,23.85
2018-12-15T00:42:04.917Z,23.85
2018-12-15T00:43:09.077Z,21.68
2018-12-15T00:44:13.239Z,23.30
2018-12-15T00:45:17.360Z,23.98
2018-12-15T00:46:21.627Z,24.45
2018-12-15T00:47:25.769Z,23.10
2018-12-15T00:48:29.976Z,23.95
2018-12-15T00:49:34.078Z,23.38
2018-12-15T00:50:38.260Z,22.87
2018-12-15T00:51:42.407Z,24.30
2018-12-15T00:52:46.639Z,23.67
2018-12-15T00:53:50.723Z,24.10
2018-12-15T00:54:55.556Z,22.40
2018-12-15T00:55:59.854Z,22.32
2018-12-15T00:57:04.103Z,24.07
2018-12-15T00:58:08.164Z,24.27
2018-12-15T00:59:12.343Z,24.15
2018-12-15T01:00:16.497Z,23.83
2018-12-15T01:01:20.664Z,22.70
2018-12-15T01:02:24.751Z,23.92
2018-12-15T01:03:28.955Z,23.67
2018-12-15T01:04:33.124Z,23.95
2018-12-15T01:05:37.189Z,23.07
2018-12-15T01:06:41.309Z,23.90
2018-12-15T01:07:45.437Z,23.55
2018-12-15T01:08:49.538Z,24.23
2018-12-15T01:09:53.639Z,23.25
2018-12-15T01:10:57.812Z,24.45
2018-12-15T01:12:01.995Z,23.25
2018-12-15T01:13:06.243Z,23.73
2018-12-15T01:14:10.409Z,22.20
2018-12-15T01:15:16.654Z,24.87
2018-12-15T01:16:20.751Z,24.02
2018-12-15T01:17:24.927Z,23.77
2018-12-15T01:18:29.061Z,23.30
2018-12-15T01:19:33.325Z,22.73
2018-12-15T01:20:38.516Z,22.35
2018-12-15T01:21:42.670Z,23.65
2018-12-15T01:22:46.824Z,24.82
2018-12-15T01:23:51.446Z,24.10
2018-12-15T01:24:55.535Z,24.10
2018-12-15T01:26:00.114Z,23.67
2018-12-15T01:27:04.213Z,22.67
2018-12-15T01:28:08.471Z,24.20
2018-12-15T01:29:12.624Z,23.38
2018-12-15T01:30:16.725Z,24.95
2018-12-15T01:31:20.812Z,23.57
2018-12-15T01:32:25.014Z,22.80
2018-12-15T01:33:29.125Z,22.80
2018-12-15T01:34:33.270Z,22.50
2018-12-15T01:35:37.339Z,23.30
2018-12-15T01:36:41.449Z,24.55
2018-12-15T01:37:45.612Z,24.92
2018-12-15T01:38:49.788Z,24.00
2018-12-15T01:39:53.893Z,23.98
2018-12-15T01:40:58.122Z,24.95
2018-12-15T01:42:02.307Z,24.05
2018-12-15T01:43:06.493Z,23.32
2018-12-15T01:44:10.707Z,22.65
2018-12-15T01:45:14.787Z,23.87
2018-12-15T01:46:19.969Z,23.35
2018-12-15T01:47:26.931Z,23.07
2018-12-15T01:48:30.192Z,22.90
2018-12-15T01:49:34.280Z,24.87
2018-12-15T01:50:38.365Z,23.80
2018-12-15T01:51:42.470Z,23.83
2018-12-15T01:52:46.611Z,24.23
2018-12-15T01:53:50.712Z,24.23
2018-12-15T01:54:54.954Z,24.15
2018-12-15T01:55:59.172Z,23.35
2018-12-15T01:57:03.325Z,21.75
2018-12-15T01:58:07.578Z,23.75
2018-12-15T01:59:11.823Z,24.15
2018-12-15T02:00:16.030Z,22.27
2018-12-15T02:01:20.295Z,24.63
2018-12-15T02:02:24.636Z,23.80
2018-12-15T02:03:28.823Z,24.85
2018-12-15T02:04:33.961Z,24.27
2018-12-15T02:05:38.174Z,23.70
2018-12-15T02:06:42.448Z,24.85
2018-12-15T02:07:46.824Z,23.22
2018-12-15T02:08:51.011Z,25.65
2018-12-15T02:09:57.191Z,24.23
2018-12-15T02:11:01.390Z,23.70
2018-12-15T02:12:05.696Z,24.32
2018-12-15T02:13:09.802Z,24.72
2018-12-15T02:14:13.985Z,24.43
2018-12-15T02:15:18.313Z,24.70
2018-12-15T02:16:22.423Z,22.75
2018-12-15T02:17:26.609Z,23.18
2018-12-15T02:18:30.729Z,24.05
2018-12-15T02:19:35.096Z,24.40
2018-12-15T02:20:39.354Z,24.35
2018-12-15T02:21:43.576Z,24.55
2018-12-15T02:22:47.724Z,24.75
2018-12-15T02:23:51.828Z,23.95
2018-12-15T02:24:55.922Z,23.38
2018-12-15T02:26:00.024Z,24.20
2018-12-15T02:27:04.236Z,23.73
2018-12-15T02:28:08.518Z,23.45
2018-12-15T02:29:16.276Z,24.18
2018-12-15T02:30:20.369Z,25.17
2018-12-15T02:31:24.645Z,24.98
2018-12-15T02:32:28.779Z,24.77
2018-12-15T02:33:33.027Z,23.27
2018-12-15T02:34:37.100Z,23.87
2018-12-15T02:35:41.259Z,23.90
2018-12-15T02:36:45.411Z,23.77
2018-12-15T02:37:50.539Z,24.37
2018-12-15T02:38:54.701Z,23.80
2018-12-15T02:39:58.795Z,24.05
2018-12-15T02:41:03.065Z,23.55
2018-12-15T02:42:07.272Z,24.37
2018-12-15T02:43:11.386Z,23.60
2018-12-15T02:44:15.537Z,24.70
2018-12-15T02:45:19.624Z,24.72
2018-12-15T02:46:23.703Z,23.62
2018-12-15T02:47:27.828Z,22.95
2018-12-15T02:48:31.984Z,24.47
2018-12-15T02:49:36.083Z,25.05
2018-12-15T02:50:40.210Z,23.12
2018-12-15T02:51:44.372Z,24.05
2018-12-15T02:52:48.447Z,24.43
2018-12-15T02:53:52.493Z,24.65
2018-12-15T02:54:56.713Z,23.47
2018-12-15T02:56:00.880Z,23.80
2018-12-15T02:57:05.198Z,23.98
2018-12-15T02:58:09.262Z,23.77
2018-12-15T02:59:13.406Z,23.65
2018-12-15T03:00:17.524Z,25.02
2018-12-15T03:01:21.704Z,24.50
2018-12-15T03:02:25.780Z,24.57
2018-12-15T03:03:29.849Z,23.02
2018-12-15T03:04:33.930Z,23.75
2018-12-15T03:05:39.111Z,25.37
2018-12-15T03:06:43.372Z,23.50
2018-12-15T03:07:47.422Z,23.52
2018-12-15T03:08:51.469Z,24.07
2018-12-15T03:09:55.581Z,24.55
2018-12-15T03:10:59.724Z,24.30
2018-12-15T03:12:03.856Z,23.92
2018-12-15T03:13:08.034Z,23.92
2018-12-15T03:14:12.092Z,24.98
2018-12-15T03:15:16.242Z,23.65
2018-12-15T03:16:20.345Z,23.40
2018-12-15T03:17:24.656Z,23.67
2018-12-15T03:18:28.731Z,23.50
2018-12-15T03:19:32.793Z,24.40
2018-12-15T03:20:36.906Z,24.45
2018-12-15T03:21:40.963Z,24.47
2018-12-15T03:22:45.025Z,23.57
2018-12-15T03:23:49.099Z,23.52
2018-12-15T03:24:53.189Z,24.57
2018-12-15T03:25:57.834Z,23.47
2018-12-15T03:27:02.126Z,23.98
2018-12-15T03:28:06.276Z,25.10
2018-12-15T03:29:10.357Z,25.10
2018-12-15T03:30:14.473Z,23.35
2018-12-15T03:31:18.679Z,24.20
2018-12-15T03:32:22.766Z,23.92
2018-12-15T03:33:26.815Z,23.52
2018-12-15T03:34:30.870Z,24.63
2018-12-15T03:35:34.944Z,23.30
2018-12-15T03:36:39.059Z,23.65
2018-12-15T03:37:43.218Z,24.37
2018-12-15T03:38:47.344Z,23.75
2018-12-15T03:39:51.450Z,24.60
2018-12-15T03:40:55.561Z,23.77
2018-12-15T03:42:06.147Z,23.92
2018-12-15T03:43:10.402Z,24.12
2018-12-15T03:44:14.581Z,24.23
2018-12-15T03:45:18.763Z,24.47
2018-12-15T03:46:22.834Z,24.90
2018-12-15T03:47:27.134Z,23.98
2018-12-15T03:48:31.281Z,24.00
2018-12-15T03:49:35.423Z,24.85
2018-12-15T03:50:39.508Z,24.15
2018-12-15T03:51:43.608Z,24.87
2018-12-15T03:52:47.636Z,23.60
2018-12-15T03:53:51.729Z,24.40
2018-12-15T03:54:55.790Z,23.80
2018-12-15T03:55:59.897Z,24.85
2018-12-15T03:57:03.958Z,22.32
2018-12-15T03:58:08.109Z,23.30
2018-12-15T03:59:12.213Z,23.55
2018-12-15T04:00:16.330Z,24.40
2018-12-15T04:01:20.593Z,23.75
2018-12-15T04:02:24.726Z,24.82
2018-12-15T04:03:28.808Z,24.15
2018-12-15T04:04:33.194Z,23.55
2018-12-15T04:05:37.343Z,23.12
2018-12-15T04:06:41.446Z,24.15
2018-12-15T04:07:45.498Z,22.90
2018-12-15T04:08:49.630Z,22.17
2018-12-15T04:09:53.653Z,23.55
2018-12-15T04:10:57.731Z,24.35
2018-12-15T04:12:01.813Z,22.82
2018-12-15T04:13:05.909Z,23.20
2018-12-15T04:14:09.960Z,23.12
2018-12-15T04:15:14.263Z,23.92
2018-12-15T04:16:18.399Z,23.45
2018-12-15T04:17:22.590Z,23.85
2018-12-15T04:18:26.654Z,24.15
2018-12-15T04:19:30.727Z,22.93
2018-12-15T04:20:34.797Z,22.95
2018-12-15T04:21:38.892Z,21.85
2018-12-15T04:22:43.041Z,23.45
2018-12-15T04:23:47.167Z,22.93
2018-12-15T04:24:51.290Z,23.00
2018-12-15T04:25:55.401Z,21.95
2018-12-15T04:26:59.517Z,22.32
2018-12-15T04:28:05.624Z,23.98
2018-12-15T04:29:12.739Z,24.23
2018-12-15T04:30:17.942Z,22.70
2018-12-15T04:31:22.064Z,23.92
2018-12-15T04:32:26.209Z,22.90
2018-12-15T04:33:30.322Z,23.52
2018-12-15T04:34:34.405Z,22.65
2018-12-15T04:35:38.525Z,22.52
2018-12-15T04:36:42.797Z,23.10
2018-12-15T04:37:46.888Z,22.52
2018-12-15T04:38:51.130Z,22.93
2018-12-15T04:39:55.187Z,22.65
2018-12-15T04:40:59.425Z,23.27
2018-12-15T04:42:03.504Z,22.93
2018-12-15T04:43:07.542Z,22.50
2018-12-15T04:44:11.718Z,23.45
2018-12-15T04:45:15.838Z,20.77
2018-12-15T04:46:19.895Z,22.50
2018-12-15T04:47:23.933Z,22.00
2018-12-15T04:48:27.963Z,21.42
2018-12-15T04:49:32.080Z,22.67
2018-12-15T04:50:36.161Z,21.95
2018-12-15T04:51:40.264Z,21.33
2018-12-15T04:52:44.307Z,21.95
2018-12-15T04:53:48.367Z,22.40
2018-12-15T04:54:52.457Z,21.93
2018-12-15T04:55:56.571Z,21.65
2018-12-15T04:57:00.590Z,21.87
2018-12-15T04:58:04.603Z,22.55
2018-12-15T04:59:08.703Z,22.22
2018-12-15T05:00:12.779Z,22.52
2018-12-15T05:01:16.938Z,22.70
2018-12-15T05:02:21.124Z,22.05
2018-12-15T05:03:25.235Z,20.82
2018-12-15T05:04:29.336Z,20.97
2018-12-15T05:05:33.415Z,20.82
2018-12-15T05:06:37.504Z,21.15
2018-12-15T05:07:41.544Z,20.90
2018-12-15T05:08:45.585Z,22.42
2018-12-15T05:09:49.628Z,22.22
2018-12-15T05:10:53.693Z,21.42
2018-12-15T05:11:57.737Z,22.13
2018-12-15T05:13:01.845Z,22.93
2018-12-15T05:14:05.847Z,20.45
2018-12-15T05:15:09.914Z,21.10
2018-12-15T05:16:14.128Z,20.72
2018-12-15T05:17:18.211Z,22.55
2018-12-15T05:18:23.418Z,21.65
2018-12-15T05:19:27.536Z,21.27
2018-12-15T05:20:31.648Z,21.65
2018-12-15T05:21:35.739Z,21.12
2018-12-15T05:22:39.889Z,21.17
2018-12-15T05:23:43.943Z,22.45
2018-12-15T05:24:48.165Z,21.73
2018-12-15T05:25:52.249Z,22.37
2018-12-15T05:26:56.505Z,22.30
2018-12-15T05:28:00.643Z,21.80
2018-12-15T05:29:04.772Z,20.90
2018-12-15T05:30:09.069Z,22.22
2018-12-15T05:31:13.146Z,21.57
2018-12-15T05:32:19.224Z,22.70
2018-12-15T05:33:23.312Z,22.62
2018-12-15T05:34:27.385Z,21.90
2018-12-15T05:35:31.523Z,21.97
2018-12-15T05:36:35.579Z,21.85
2018-12-15T05:37:39.672Z,23.52
2018-12-15T05:38:43.767Z,22.07
2018-12-15T05:39:47.844Z,22.35
2018-12-15T05:40:51.920Z,22.95
2018-12-15T05:41:56.084Z,23.05
2018-12-15T05:43:00.114Z,22.95
2018-12-15T05:44:04.365Z,23.47
2018-12-15T05:45:08.569Z,22.52
2018-12-15T05:46:12.686Z,22.82
2018-12-15T05:47:16.812Z,22.75
2018-12-15T05:48:25.252Z,22.00
2018-12-15T05:49:27.564Z,22.95
2018-12-15T05:50:31.765Z,22.48
2018-12-15T05:51:35.899Z,23.25
2018-12-15T05:52:40.049Z,22.82
2018-12-15T05:53:44.209Z,22.37
2018-12-15T05:54:48.415Z,21.82
2018-12-15T05:55:52.469Z,23.35
2018-12-15T05:56:56.768Z,21.93
2018-12-15T05:58:00.862Z,22.17
2018-12-15T05:59:04.971Z,22.30
2018-12-15T06:00:09.030Z,22.10
2018-12-15T06:01:14.755Z,21.52
2018-12-15T06:02:19.043Z,23.50
2018-12-15T06:03:23.085Z,23.18
2018-12-15T06:04:27.165Z,22.25
2018-12-15T06:05:31.429Z,22.82
2018-12-15T06:06:35.490Z,22.90
2018-12-15T06:07:39.583Z,23.65
2018-12-15T06:08:43.661Z,22.85
2018-12-15T06:09:47.735Z,22.58
2018-12-15T06:10:51.818Z,22.22
2018-12-15T06:11:55.895Z,22.32
2018-12-15T06:13:00.082Z,22.50
2018-12-15T06:14:04.387Z,23.07
2018-12-15T06:15:08.702Z,23.02
2018-12-15T06:16:12.767Z,23.12
2018-12-15T06:17:16.889Z,22.62
2018-12-15T06:18:20.997Z,22.70
2018-12-15T06:19:25.169Z,22.65
2018-12-15T06:20:29.313Z,23.25
2018-12-15T06:21:33.709Z,22.45
2018-12-15T06:22:37.810Z,23.67
2018-12-15T06:23:41.879Z,23.45
2018-12-15T06:24:45.907Z,23.62
2018-12-15T06:25:50.028Z,22.95
2018-12-15T06:26:54.096Z,22.22
2018-12-15T06:27:58.146Z,22.32
2018-12-15T06:29:02.228Z,23.05
2018-12-15T06:30:07.114Z,22.07
2018-12-15T06:31:11.156Z,21.97
2018-12-15T06:32:15.266Z,23.12
2018-12-15T06:33:19.443Z,23.00
2018-12-15T06:34:23.517Z,22.82
2018-12-15T06:35:27.638Z,23.25
2018-12-15T06:36:31.711Z,23.02
2018-12-15T06:37:35.870Z,22.87
2018-12-15T06:38:39.874Z,22.17
2018-12-15T06:39:43.984Z,21.68
2018-12-15T06:40:48.080Z,22.22
2018-12-15T06:41:52.141Z,23.12
2018-12-15T06:42:56.479Z,22.65
2018-12-15T06:44:00.663Z,22.25
2018-12-15T06:45:06.086Z,21.97
2018-12-15T06:46:10.285Z,22.70
2018-12-15T06:47:14.379Z,22.93
2018-12-15T06:48:18.565Z,22.58
2018-12-15T06:49:23.510Z,23.55
2018-12-15T06:50:27.615Z,21.70
2018-12-15T06:51:31.700Z,22.90
2018-12-15T06:52:35.825Z,23.27
2018-12-15T06:53:39.903Z,23.47
2018-12-15T06:54:43.934Z,21.42
2018-12-15T06:55:48.023Z,22.87
2018-12-15T06:56:52.096Z,22.40
2018-12-15T06:57:56.157Z,22.60
2018-12-15T06:59:00.296Z,24.82
2018-12-15T07:00:05.048Z,23.07
2018-12-15T07:01:10.314Z,23.27
2018-12-15T07:02:14.328Z,23.30
2018-12-15T07:03:18.448Z,23.62
2018-12-15T07:04:22.551Z,21.60
2018-12-15T07:05:26.566Z,22.32
2018-12-15T07:06:30.757Z,21.65
2018-12-15T07:07:34.843Z,22.35
2018-12-15T07:08:38.959Z,22.02
2018-12-15T07:09:43.011Z,22.02
2018-12-15T07:10:47.067Z,22.37
2018-12-15T07:11:51.305Z,23.35
2018-12-15T07:12:55.770Z,22.40
2018-12-15T07:13:59.857Z,23.10
2018-12-15T07:15:04.315Z,23.07
2018-12-15T07:16:08.463Z,22.30
2018-12-15T07:17:12.571Z,22.65
2018-12-15T07:18:16.709Z,22.32
2018-12-15T07:19:20.849Z,22.15
2018-12-15T07:20:24.925Z,23.07
2018-12-15T07:21:28.996Z,22.48
2018-12-15T07:22:33.124Z,23.85
2018-12-15T07:23:37.310Z,23.77
2018-12-15T07:24:41.395Z,23.77
2018-12-15T07:25:45.604Z,23.98
2018-12-15T07:26:49.683Z,23.52
2018-12-15T07:27:53.797Z,24.00
2018-12-15T07:28:57.840Z,23.18
2018-12-15T07:30:01.914Z,23.75
2018-12-15T07:31:06.166Z,25.05
2018-12-15T07:32:10.280Z,23.80
2018-12-15T07:33:14.318Z,23.70
2018-12-15T07:34:18.408Z,23.77
2018-12-15T07:35:22.446Z,24.05
2018-12-15T07:36:26.548Z,24.30
2018-12-15T07:37:30.670Z,22.90
2018-12-15T07:38:34.688Z,22.25
2018-12-15T07:39:38.797Z,24.37
2018-12-15T07:40:42.897Z,24.90
2018-12-15T07:41:46.968Z,23.95
2018-12-15T07:42:51.137Z,24.57
2018-12-15T07:43:55.277Z,22.90
2018-12-15T07:44:59.363Z,22.50
2018-12-15T07:46:03.645Z,22.80
2018-12-15T07:47:07.715Z,24.23
2018-12-15T07:48:11.850Z,22.65
2018-12-15T07:49:15.929Z,24.27
2018-12-15T07:50:20.159Z,22.67
2018-12-15T07:51:24.234Z,23.75
2018-12-15T07:52:28.729Z,23.50
2018-12-15T07:53:32.929Z,22.75
2018-12-15T07:54:36.979Z,24.60
2018-12-15T07:55:41.140Z,24.23
2018-12-15T07:56:46.422Z,22.60
2018-12-15T07:57:50.533Z,24.45
2018-12-15T07:58:55.435Z,23.57
2018-12-15T07:59:59.536Z,24.07
2018-12-15T08:01:03.639Z,24.27
2018-12-15T08:02:07.725Z,25.00
2018-12-15T08:03:11.896Z,23.20
2018-12-15T08:04:16.048Z,24.02
2018-12-15T08:05:20.220Z,24.18
2018-12-15T08:06:24.306Z,24.92
2018-12-15T08:07:28.396Z,23.90
2018-12-15T08:08:32.437Z,24.70
2018-12-15T08:09:36.788Z,24.10
2018-12-15T08:10:45.994Z,25.15
2018-12-15T08:11:55.332Z,23.85
2018-12-15T08:13:03.273Z,24.55
2018-12-15T08:14:09.708Z,24.57
2018-12-15T08:15:13.795Z,24.20
2018-12-15T08:16:17.832Z,24.05
2018-12-15T08:17:21.862Z,26.45
2018-12-15T08:18:26.107Z,24.55
2018-12-15T08:19:30.173Z,24.65
2018-12-15T08:20:34.254Z,24.57
2018-12-15T08:21:38.344Z,24.47
2018-12-15T08:22:42.406Z,25.52
2018-12-15T08:23:46.517Z,25.02
2018-12-15T08:24:50.562Z,24.75
2018-12-15T08:25:54.606Z,24.50
2018-12-15T08:26:58.611Z,24.92
2018-12-15T08:28:02.684Z,25.62
2018-12-15T08:29:06.731Z,25.52
2018-12-15T08:30:11.783Z,25.90
2018-12-15T08:31:15.920Z,24.60
2018-12-15T08:32:19.945Z,25.88
2018-12-15T08:33:24.043Z,24.02
2018-12-15T08:34:28.109Z,23.87
2018-12-15T08:35:32.207Z,24.43
2018-12-15T08:36:36.338Z,25.57
2018-12-15T08:37:40.409Z,24.85
2018-12-15T08:38:44.501Z,25.45
2018-12-15T08:39:48.563Z,24.90
2018-12-15T08:40:52.705Z,25.37
2018-12-15T08:41:56.912Z,24.82
2018-12-15T08:43:01.080Z,25.45
2018-12-15T08:44:05.240Z,25.12
2018-12-15T08:45:09.289Z,24.30
2018-12-15T08:46:17.407Z,25.15
2018-12-15T08:47:21.453Z,23.92
2018-12-15T08:48:25.570Z,23.85
2018-12-15T08:49:29.641Z,24.75
2018-12-15T08:50:33.808Z,24.72
2018-12-15T08:51:37.873Z,25.45
2018-12-15T08:52:41.930Z,24.35
2018-12-15T08:53:46.115Z,24.05
2018-12-15T08:54:50.145Z,24.67
2018-12-15T08:55:54.259Z,24.07
2018-12-15T08:56:58.451Z,23.75
2018-12-15T08:58:02.521Z,24.60
2018-12-15T08:59:06.831Z,22.98
2018-12-15T09:00:11.023Z,24.70
2018-12-15T09:01:15.461Z,24.85
2018-12-15T09:02:19.737Z,23.00
2018-12-15T09:03:24.312Z,23.10
2018-12-15T09:04:28.682Z,24.98
2018-12-15T09:05:32.749Z,24.15
2018-12-15T09:06:37.159Z,24.63
2018-12-15T09:07:41.447Z,24.02
2018-12-15T09:08:47.289Z,23.12
2018-12-15T09:09:51.496Z,24.02
2018-12-15T09:10:55.619Z,23.83
2018-12-15T09:11:59.970Z,23.10
2018-12-15T09:13:04.289Z,24.02
2018-12-15T09:14:08.506Z,23.67
2018-12-15T09:15:12.781Z,24.15
2018-12-15T09:16:16.987Z,24.57
2018-12-15T09:17:21.743Z,24.50
2018-12-15T09:18:25.927Z,24.52
2018-12-15T09:19:31.182Z,22.60
2018-12-15T09:20:35.553Z,24.40
2018-12-15T09:21:39.902Z,23.50
2018-12-15T09:22:44.039Z,23.42
2018-12-15T09:23:49.243Z,24.02
2018-12-15T09:24:53.562Z,22.50
2018-12-15T09:25:57.691Z,23.18
2018-12-15T09:27:01.836Z,23.38
2018-12-15T09:28:06.200Z,24.67
2018-12-15T09:29:10.373Z,22.40
2018-12-15T09:30:16.466Z,24.15
2018-12-15T09:31:20.606Z,24.23
2018-12-15T09:32:24.651Z,23.42
2018-12-15T09:33:28.807Z,24.32
2018-12-15T09:34:32.953Z,23.22
2018-12-15T09:35:37.041Z,23.95
2018-12-15T09:36:41.257Z,23.12
2018-12-15T09:37:45.353Z,23.20
2018-12-15T09:38:49.688Z,23.15
2018-12-15T09:39:53.764Z,22.95
2018-12-15T09:40:57.867Z,23.67
2018-12-15T09:42:04.473Z,22.77
2018-12-15T09:43:08.624Z,23.83
2018-12-15T09:44:12.988Z,23.70
2018-12-15T09:45:17.666Z,22.05
2018-12-15T09:46:22.165Z,22.30
2018-12-15T09:47:26.230Z,22.60
2018-12-15T09:48:31.422Z,23.18
2018-12-15T09:49:35.875Z,22.17
2018-12-15T09:50:39.933Z,21.97
2018-12-15T09:51:44.050Z,22.05
2018-12-15T09:52:48.224Z,22.75
2018-12-15T09:53:52.274Z,22.30
2018-12-15T09:54:56.438Z,21.97
2018-12-15T09:56:00.636Z,22.00
2018-12-15T09:57:04.996Z,22.20
2018-12-15T09:58:10.313Z,20.35
2018-12-15T09:59:14.633Z,21.12
2018-12-15T10:00:19.116Z,21.87
2018-12-15T10:01:23.386Z,23.22
2018-12-15T10:02:27.601Z,22.52
2018-12-15T10:03:31.781Z,21.60
2018-12-15T10:04:35.960Z,21.73
2018-12-15T10:05:40.191Z,21.87
2018-12-15T10:06:51.305Z,22.30
2018-12-15T10:07:55.558Z,21.57
2018-12-15T10:08:59.624Z,20.77
2018-12-15T10:10:03.915Z,20.05
2018-12-15T10:11:08.324Z,21.45
2018-12-15T10:12:12.452Z,20.37
2018-12-15T10:13:16.739Z,21.05
2018-12-15T10:14:20.911Z,20.72
2018-12-15T10:15:25.013Z,20.35
2018-12-15T10:16:29.273Z,20.37
2018-12-15T10:17:33.546Z,20.05
2018-12-15T10:18:37.642Z,20.27
2018-12-15T10:19:42.021Z,19.65
2018-12-15T10:20:46.223Z,19.90
2018-12-15T10:21:50.428Z,19.57
2018-12-15T10:22:54.641Z,20.30
2018-12-15T10:23:58.746Z,19.90
2018-12-15T10:25:03.063Z,20.17
2018-12-15T10:26:07.256Z,20.17
2018-12-15T10:27:11.400Z,20.70
2018-12-15T10:28:15.527Z,19.20
2018-12-15T10:29:25.005Z,20.05
2018-12-15T10:30:34.578Z,19.48
2018-12-15T10:31:44.075Z,18.87
2018-12-15T10:32:52.890Z,20.80
2018-12-15T10:33:57.017Z,19.73
2018-12-15T10:35:01.121Z,19.98
2018-12-15T10:36:05.445Z,20.62
2018-12-15T10:37:09.667Z,19.05
2018-12-15T10:38:13.850Z,20.37
2018-12-15T10:39:17.913Z,19.02
2018-12-15T10:40:22.116Z,19.80
2018-12-15T10:41:27.419Z,18.77
2018-12-15T10:42:31.732Z,19.20
2018-12-15T10:43:35.934Z,19.92
2018-12-15T10:44:40.128Z,20.02
2018-12-15T10:45:44.339Z,18.77
2018-12-15T10:46:50.345Z,19.75
2018-12-15T10:47:56.503Z,18.82
2018-12-15T10:49:00.688Z,19.98
2018-12-15T10:50:06.195Z,18.32
2018-12-15T10:51:11.136Z,20.08
2018-12-15T10:52:15.430Z,18.77
2018-12-15T10:53:20.072Z,18.70
2018-12-15T10:54:25.519Z,19.02
2018-12-15T10:55:29.728Z,18.02
2018-12-15T10:56:34.153Z,18.57
2018-12-15T10:57:39.989Z,19.35
2018-12-15T10:58:44.410Z,18.80
2018-12-15T10:59:48.822Z,18.73
2018-12-15T11:00:56.968Z,18.00
2018-12-15T11:02:01.604Z,17.90
2018-12-15T11:03:06.496Z,17.32
2018-12-15T11:04:11.098Z,17.60
2018-12-15T11:05:15.435Z,17.80
2018-12-15T11:06:20.055Z,17.67
2018-12-15T11:07:24.586Z,18.90
2018-12-15T11:08:28.934Z,17.90
2018-12-15T11:09:33.162Z,18.48
2018-12-15T11:10:37.940Z,17.85
2018-12-15T11:11:42.330Z,18.92
2018-12-15T11:12:48.525Z,17.85
2018-12-15T11:13:52.597Z,18.45
2018-12-15T11:14:56.809Z,17.07
2018-12-15T11:16:01.042Z,18.35
2018-12-15T11:17:05.257Z,18.40
2018-12-15T11:18:09.961Z,17.50
2018-12-15T11:19:14.138Z,17.85
2018-12-15T11:20:18.325Z,17.62
2018-12-15T11:21:22.603Z,18.10
2018-12-15T11:22:26.724Z,17.67
2018-12-15T11:23:30.895Z,18.60
2018-12-15T11:24:35.116Z,18.50
2018-12-15T11:25:40.347Z,17.25
2018-12-15T11:26:44.639Z,18.07
2018-12-15T11:27:48.988Z,18.00
2018-12-15T11:28:53.088Z,19.07
2018-12-15T11:29:57.246Z,18.60
2018-12-15T11:31:01.354Z,18.20
2018-12-15T11:32:06.434Z,17.77
2018-12-15T11:33:12.523Z,17.70
2018-12-15T11:34:16.717Z,17.42
2018-12-15T11:35:20.876Z,15.85
2018-12-15T11:36:26.564Z,16.50
2018-12-15T11:37:31.599Z,16.07
2018-12-15T11:38:35.786Z,15.68
2018-12-15T11:39:40.175Z,15.23
2018-12-15T11:40:44.954Z,15.32
2018-12-15T11:41:49.195Z,15.43
2018-12-15T11:42:53.420Z,14.95
2018-12-15T11:43:58.344Z,13.53
2018-12-15T11:45:02.666Z,15.85
2018-12-15T11:46:08.234Z,14.98
2018-12-15T11:47:14.613Z,15.38
2018-12-15T11:48:19.020Z,15.45
2018-12-15T11:49:23.376Z,14.68
2018-12-15T11:50:28.906Z,15.05
2018-12-15T11:51:33.700Z,13.80
2018-12-15T11:52:39.099Z,14.65
2018-12-15T11:53:44.411Z,14.15
2018-12-15T11:54:48.722Z,13.48
2018-12-15T11:55:52.907Z,13.60
2018-12-15T11:56:57.359Z,13.48
2018-12-15T11:58:01.593Z,13.70
2018-12-15T11:59:05.893Z,12.78
2018-12-15T12:00:10.474Z,13.40
2018-12-15T12:01:14.714Z,13.65
2018-12-15T12:02:18.895Z,13.45
2018-12-15T12:03:23.241Z,14.13
2018-12-15T12:04:27.473Z,14.18
2018-12-15T12:05:31.631Z,13.38
2018-12-15T12:06:35.817Z,12.73
2018-12-15T12:07:40.627Z,13.70
2018-12-15T12:08:45.849Z,12.98
2018-12-15T12:09:50.371Z,14.38
2018-12-15T12:10:55.602Z,14.45
2018-12-15T12:12:00.969Z,14.35
2018-12-15T12:13:05.368Z,14.90
2018-12-15T12:14:09.856Z,13.05
2018-12-15T12:15:15.281Z,12.78
2018-12-15T12:16:20.994Z,14.18
2018-12-15T12:17:25.320Z,14.18
2018-12-15T12:18:29.541Z,13.80
2018-12-15T12:19:34.101Z,13.48
2018-12-15T12:20:38.224Z,13.95
2018-12-15T12:21:42.540Z,13.38
2018-12-15T12:22:46.744Z,13.88
2018-12-15T12:23:52.891Z,14.30
2018-12-15T12:25:04.574Z,12.80
2018-12-15T12:26:10.574Z,13.20
2018-12-15T12:27:14.629Z,13.48
2018-12-15T12:28:18.693Z,13.45
2018-12-15T12:29:22.860Z,14.28
2018-12-15T12:30:27.021Z,14.15
2018-12-15T12:31:31.112Z,15.35
2018-12-15T12:32:35.204Z,15.18
2018-12-15T12:33:39.418Z,14.47
2018-12-15T12:34:43.562Z,14.13
2018-12-15T12:35:47.686Z,13.95
2018-12-15T12:36:51.721Z,13.68
2018-12-15T12:37:55.858Z,14.60
2018-12-15T12:38:59.915Z,14.43
2018-12-15T12:40:04.861Z,13.78
2018-12-15T12:41:09.699Z,13.28
2018-12-15T12:42:15.753Z,14.03
2018-12-15T12:43:19.941Z,13.30
2018-12-15T12:44:24.005Z,14.15
2018-12-15T12:45:28.148Z,13.53
2018-12-15T12:46:32.314Z,13.32
2018-12-15T12:47:36.837Z,13.53
2018-12-15T12:48:40.952Z,14.73
2018-12-15T12:49:45.156Z,13.45
2018-12-15T12:50:49.139Z,13.72
2018-12-15T12:51:53.482Z,13.35
2018-12-15T12:52:57.523Z,13.35
2018-12-15T12:54:01.590Z,14.13
2018-12-15T12:55:06.219Z,13.22
2018-12-15T12:56:10.297Z,14.73
2018-12-15T12:57:14.327Z,14.87
2018-12-15T12:58:18.450Z,13.70
2018-12-15T12:59:23.095Z,15.05
2018-12-15T13:00:28.293Z,14.63
2018-12-15T13:01:32.339Z,14.33
2018-12-15T13:02:37.130Z,14.93
2018-12-15T13:03:41.188Z,15.00
2018-12-15T13:04:45.278Z,14.40
2018-12-15T13:05:49.320Z,16.00
2018-12-15T13:06:53.469Z,15.15
2018-12-15T13:07:57.539Z,15.20
2018-12-15T13:09:01.803Z,15.65
2018-12-15T13:10:08.184Z,14.98
2018-12-15T13:11:12.254Z,15.65
2018-12-15T13:12:16.249Z,15.70
2018-12-15T13:13:20.373Z,14.70
2018-12-15T13:14:24.719Z,15.72
2018-12-15T13:15:28.935Z,14.40
2018-12-15T13:16:33.030Z,15.23
2018-12-15T13:17:37.099Z,14.47
2018-12-15T13:18:41.194Z,13.98
2018-12-15T13:19:45.285Z,15.35
2018-12-15T13:20:49.305Z,14.50
2018-12-15T13:21:53.396Z,14.87
2018-12-15T13:22:57.476Z,14.50
2018-12-15T13:24:01.554Z,14.53
2018-12-15T13:25:05.758Z,15.25
2018-12-15T13:26:09.846Z,14.30
2018-12-15T13:27:13.976Z,15.03
2018-12-15T13:28:18.146Z,14.63
2018-12-15T13:29:23.184Z,14.30
2018-12-15T13:30:27.698Z,16.15
2018-12-15T13:31:31.809Z,12.58
2018-12-15T13:32:35.902Z,14.38
2018-12-15T13:33:39.909Z,13.78
2018-12-15T13:34:43.935Z,14.40
2018-12-15T13:35:48.079Z,14.50
2018-12-15T13:36:52.258Z,13.55
2018-12-15T13:37:56.325Z,14.40
2018-12-15T13:39:00.512Z,14.07
2018-12-15T13:40:05.145Z,14.55
2018-12-15T13:41:09.287Z,15.72
2018-12-15T13:42:13.566Z,15.25
2018-12-15T13:43:17.594Z,15.78
2018-12-15T13:44:21.919Z,15.35
2018-12-15T13:45:26.216Z,16.10
2018-12-15T13:46:30.700Z,15.23
2018-12-15T13:47:34.766Z,16.65
2018-12-15T13:48:38.863Z,15.03